createdAt,value
2018-12-09T00:00:16.779Z,98.22
2018-12-09T00:01:16.802Z,97.93
2018-12-09T00:02:37.863Z,98.79
2018-12-09T00:03:16.848Z,97.83
2018-12-09T00:04:16.887Z,97.83
2018-12-09T00:05:16.908Z,98.22
2018-12-09T00:06:16.924Z,97.93
2018-12-09T00:07:16.946Z,96.98
2018-12-09T00:08:37.967Z,97.64
2018-12-09T00:09:16.963Z,98.31
2018-12-09T00:10:16.998Z,97.45
2018-12-09T00:11:17.015Z,97.93
2018-12-09T00:12:17.053Z,98.50
2018-12-09T00:13:17.059Z,98.60
2018-12-09T00:14:38.603Z,98.79
2018-12-09T00:15:17.112Z,98.69
2018-12-09T00:16:17.117Z,98.36
2018-12-09T00:17:17.145Z,98.31
2018-12-09T00:18:17.156Z,98.64
2018-12-09T00:19:17.170Z,98.93
2018-12-09T00:20:38.205Z,99.02
2018-12-09T00:21:17.333Z,99.21
2018-12-09T00:22:17.342Z,99.40
2018-12-09T00:23:17.265Z,99.50
2018-12-09T00:24:17.274Z,98.69
2018-12-09T00:25:17.319Z,99.45
2018-12-09T00:26:38.351Z,98.88
2018-12-09T00:27:17.377Z,99.45
2018-12-09T00:28:17.374Z,99.55
2018-12-09T00:29:17.379Z,99.21
2018-12-09T00:30:17.416Z,99.26
2018-12-09T00:31:17.420Z,99.26
2018-12-09T00:32:38.454Z,99.26
2018-12-09T00:33:17.470Z,99.16
2018-12-09T00:34:17.484Z,99.99
2018-12-09T00:35:17.520Z,99.99
2018-12-09T00:36:17.539Z,99.26
2018-12-09T00:37:17.566Z,99.16
2018-12-09T00:38:38.649Z,99.36
2018-12-09T00:39:17.589Z,98.97
2018-12-09T00:40:17.619Z,98.88
2018-12-09T00:41:17.640Z,99.36
2018-12-09T00:42:17.676Z,99.26
2018-12-09T00:43:17.691Z,98.97
2018-12-09T00:44:38.713Z,99.36
2018-12-09T00:45:17.727Z,99.45
2018-12-09T00:46:17.733Z,99.26
2018-12-09T00:47:17.775Z,99.45
2018-12-09T00:48:17.787Z,99.26
2018-12-09T00:49:17.799Z,99.99
2018-12-09T00:50:38.868Z,99.99
2018-12-09T00:51:17.867Z,99.99
2018-12-09T00:52:17.863Z,99.99
2018-12-09T00:53:17.889Z,99.99
2018-12-09T00:54:17.913Z,99.99
2018-12-09T00:55:18.025Z,99.99
2018-12-09T00:56:38.983Z,99.99
2018-12-09T00:57:18.001Z,99.99
2018-12-09T00:58:18.000Z,99.84
2018-12-09T00:59:18.002Z,99.84
2018-12-09T01:00:18.035Z,99.99
2018-12-09T01:01:18.050Z,99.99
2018-12-09T01:02:39.088Z,99.99
2018-12-09T01:03:18.101Z,99.99
2018-12-09T01:04:18.102Z,99.99
2018-12-09T01:05:18.152Z,99.99
2018-12-09T01:06:18.154Z,99.99
2018-12-09T01:07:18.187Z,99.99
2018-12-09T01:08:39.264Z,99.99
2018-12-09T01:09:18.227Z,99.99
2018-12-09T01:10:18.257Z,99.99
2018-12-09T01:11:18.264Z,99.99
2018-12-09T01:12:18.307Z,99.99
2018-12-09T01:13:18.315Z,99.99
2018-12-09T01:14:39.340Z,99.99
2018-12-09T01:15:18.358Z,99.99
2018-12-09T01:16:18.359Z,99.99
2018-12-09T01:17:18.383Z,99.99
2018-12-09T01:18:18.421Z,99.99
2018-12-09T01:19:18.421Z,99.99
2018-12-09T01:20:39.469Z,99.99
2018-12-09T01:21:18.473Z,99.99
2018-12-09T01:22:18.507Z,99.99
2018-12-09T01:23:18.514Z,99.99
2018-12-09T01:24:18.537Z,99.99
2018-12-09T01:25:18.558Z,99.99
2018-12-09T01:26:39.598Z,99.99
2018-12-09T01:27:18.605Z,99.99
2018-12-09T01:28:18.618Z,99.99
2018-12-09T01:29:18.674Z,99.99
2018-12-09T01:30:18.668Z,99.99
2018-12-09T01:31:18.678Z,99.99
2018-12-09T01:32:39.714Z,99.99
2018-12-09T01:33:18.723Z,99.99
2018-12-09T01:34:18.736Z,99.99
2018-12-09T01:35:18.810Z,99.99
2018-12-09T01:36:18.802Z,99.99
2018-12-09T01:37:18.818Z,99.99
2018-12-09T01:38:39.858Z,99.99
2018-12-09T01:39:18.868Z,99.99
2018-12-09T01:40:18.870Z,99.99
2018-12-09T01:41:18.880Z,99.99
2018-12-09T01:42:18.933Z,99.99
2018-12-09T01:43:18.935Z,99.99
2018-12-09T01:44:39.969Z,99.99
2018-12-09T01:45:18.991Z,99.99
2018-12-09T01:46:18.991Z,99.99
2018-12-09T01:47:19.027Z,99.99
2018-12-09T01:48:19.029Z,99.99
2018-12-09T01:49:19.082Z,99.99
2018-12-09T01:50:40.118Z,99.99
2018-12-09T01:51:19.101Z,99.99
2018-12-09T01:52:19.134Z,99.99
2018-12-09T01:53:19.141Z,99.99
2018-12-09T01:54:19.176Z,99.99
2018-12-09T01:55:19.191Z,99.99
2018-12-09T01:56:40.222Z,99.99
2018-12-09T01:57:19.229Z,99.99
2018-12-09T01:58:19.246Z,99.99
2018-12-09T01:59:19.276Z,99.99
2018-12-09T02:00:19.294Z,99.99
2018-12-09T02:01:19.294Z,99.99
2018-12-09T02:02:40.331Z,99.99
2018-12-09T02:03:19.342Z,99.99
2018-12-09T02:04:19.396Z,99.99
2018-12-09T02:05:19.398Z,99.99
2018-12-09T02:06:19.406Z,99.99
2018-12-09T02:07:19.446Z,99.99
2018-12-09T02:08:40.470Z,99.99
2018-12-09T02:09:19.478Z,99.99
2018-12-09T02:10:19.531Z,99.99
2018-12-09T02:11:19.508Z,99.99
2018-12-09T02:12:19.581Z,99.99
2018-12-09T02:13:19.555Z,99.99
2018-12-09T02:14:40.596Z,99.99
2018-12-09T02:15:19.609Z,99.99
2018-12-09T02:16:19.633Z,99.99
2018-12-09T02:17:19.676Z,99.99
2018-12-09T02:18:19.689Z,99.99
2018-12-09T02:19:19.706Z,99.99
2018-12-09T02:20:40.718Z,99.99
2018-12-09T02:21:19.745Z,99.99
2018-12-09T02:22:19.789Z,99.99
2018-12-09T02:23:19.761Z,99.99
2018-12-09T02:24:19.791Z,99.99
2018-12-09T02:25:19.817Z,99.99
2018-12-09T02:26:40.841Z,99.99
2018-12-09T02:27:19.851Z,99.99
2018-12-09T02:28:19.868Z,99.99
2018-12-09T02:29:19.893Z,99.99
2018-12-09T02:30:19.924Z,99.99
2018-12-09T02:31:19.946Z,99.99
2018-12-09T02:32:41.031Z,99.99
2018-12-09T02:33:20.058Z,99.99
2018-12-09T02:34:20.015Z,99.99
2018-12-09T02:35:20.027Z,99.99
2018-12-09T02:36:20.035Z,99.99
2018-12-09T02:37:20.066Z,99.99
2018-12-09T02:38:41.109Z,99.99
2018-12-09T02:39:20.106Z,99.99
2018-12-09T02:40:20.124Z,99.99
2018-12-09T02:41:20.168Z,99.99
2018-12-09T02:42:20.172Z,99.99
2018-12-09T02:43:20.190Z,99.99
2018-12-09T02:44:41.240Z,99.99
2018-12-09T02:45:20.222Z,99.99
2018-12-09T02:46:20.246Z,99.99
2018-12-09T02:47:20.275Z,99.99
2018-12-09T02:48:20.323Z,99.99
2018-12-09T02:49:20.326Z,99.99
2018-12-09T02:50:41.356Z,99.99
2018-12-09T02:51:20.349Z,99.99
2018-12-09T02:52:20.375Z,99.99
2018-12-09T02:53:20.394Z,99.99
2018-12-09T02:54:20.439Z,99.99
2018-12-09T02:55:20.445Z,99.99
2018-12-09T02:56:41.497Z,99.99
2018-12-09T02:57:20.493Z,99.99
2018-12-09T02:58:20.511Z,99.99
2018-12-09T02:59:20.537Z,99.99
2018-12-09T03:00:20.544Z,99.99
2018-12-09T03:01:20.572Z,99.99
2018-12-09T03:02:41.617Z,99.99
2018-12-09T03:03:20.602Z,99.99
2018-12-09T03:04:20.644Z,99.99
2018-12-09T03:05:20.646Z,99.99
2018-12-09T03:06:20.668Z,99.99
2018-12-09T03:07:20.689Z,99.99
2018-12-09T03:08:41.736Z,99.99
2018-12-09T03:09:20.745Z,99.99
2018-12-09T03:10:20.748Z,99.99
2018-12-09T03:11:20.780Z,99.99
2018-12-09T03:12:20.794Z,99.99
2018-12-09T03:13:20.827Z,99.99
2018-12-09T03:14:41.848Z,99.99
2018-12-09T03:15:20.861Z,99.99
2018-12-09T03:16:20.876Z,99.99
2018-12-09T03:17:20.905Z,99.99
2018-12-09T03:18:20.918Z,99.99
2018-12-09T03:19:20.944Z,99.99
2018-12-09T03:20:41.981Z,99.99
2018-12-09T03:21:21.006Z,99.99
2018-12-09T03:22:21.015Z,99.99
2018-12-09T03:23:21.036Z,99.99
2018-12-09T03:24:21.071Z,99.99
2018-12-09T03:25:21.073Z,99.99
2018-12-09T03:26:42.115Z,99.99
2018-12-09T03:27:21.115Z,99.99
2018-12-09T03:28:21.135Z,99.99
2018-12-09T03:29:21.157Z,99.99
2018-12-09T03:30:21.196Z,99.99
2018-12-09T03:31:21.203Z,99.99
2018-12-09T03:32:42.240Z,99.99
2018-12-09T03:33:21.336Z,99.99
2018-12-09T03:34:21.299Z,99.99
2018-12-09T03:35:21.292Z,99.99
2018-12-09T03:36:21.313Z,99.99
2018-12-09T03:37:21.319Z,99.99
2018-12-09T03:38:42.351Z,99.99
2018-12-09T03:39:21.365Z,99.99
2018-12-09T03:40:21.383Z,99.99
2018-12-09T03:41:21.410Z,99.99
2018-12-09T03:42:21.428Z,99.99
2018-12-09T03:43:21.459Z,99.99
2018-12-09T03:44:42.508Z,99.99
2018-12-09T03:45:21.516Z,99.99
2018-12-09T03:46:21.529Z,99.99
2018-12-09T03:47:21.529Z,99.99
2018-12-09T03:48:21.570Z,99.99
2018-12-09T03:49:21.586Z,99.99
2018-12-09T03:50:42.613Z,99.99
2018-12-09T03:51:21.624Z,99.99
2018-12-09T03:52:21.632Z,99.99
2018-12-09T03:53:21.667Z,99.99
2018-12-09T03:54:21.681Z,99.99
2018-12-09T03:55:21.722Z,99.99
2018-12-09T03:56:42.763Z,99.99
2018-12-09T03:57:21.746Z,99.99
2018-12-09T03:58:21.783Z,99.99
2018-12-09T03:59:21.782Z,99.99
2018-12-09T04:00:21.825Z,99.99
2018-12-09T04:01:21.832Z,99.99
2018-12-09T04:02:42.868Z,99.99
2018-12-09T04:03:21.903Z,99.99
2018-12-09T04:04:21.893Z,99.99
2018-12-09T04:05:21.918Z,99.99
2018-12-09T04:06:21.934Z,99.99
2018-12-09T04:07:21.986Z,99.99
2018-12-09T04:08:43.018Z,99.99
2018-12-09T04:09:22.000Z,99.99
2018-12-09T04:10:22.035Z,99.99
2018-12-09T04:11:22.041Z,99.99
2018-12-09T04:12:22.086Z,99.99
2018-12-09T04:13:22.088Z,99.99
2018-12-09T04:14:43.123Z,99.99
2018-12-09T04:15:22.137Z,99.99
2018-12-09T04:16:22.148Z,99.99
2018-12-09T04:17:22.189Z,99.99
2018-12-09T04:18:22.193Z,99.99
2018-12-09T04:19:22.233Z,99.99
2018-12-09T04:20:43.257Z,99.99
2018-12-09T04:21:22.255Z,99.99
2018-12-09T04:22:22.282Z,99.99
2018-12-09T04:23:22.304Z,99.99
2018-12-09T04:24:22.333Z,99.99
2018-12-09T04:25:22.347Z,99.99
2018-12-09T04:26:43.385Z,99.99
2018-12-09T04:27:22.399Z,99.99
2018-12-09T04:28:22.418Z,99.99
2018-12-09T04:29:22.439Z,99.99
2018-12-09T04:30:22.442Z,99.99
2018-12-09T04:31:22.495Z,99.99
2018-12-09T04:32:43.518Z,99.99
2018-12-09T04:33:22.520Z,99.99
2018-12-09T04:34:22.545Z,99.99
2018-12-09T04:35:22.559Z,99.99
2018-12-09T04:36:22.595Z,99.99
2018-12-09T04:37:22.632Z,99.99
2018-12-09T04:38:43.638Z,99.99
2018-12-09T04:39:22.641Z,99.99
2018-12-09T04:40:22.661Z,99.99
2018-12-09T04:41:22.704Z,99.99
2018-12-09T04:42:22.706Z,99.99
2018-12-09T04:43:22.735Z,99.99
2018-12-09T04:44:43.782Z,99.99
2018-12-09T04:45:22.769Z,99.99
2018-12-09T04:46:22.793Z,99.93
2018-12-09T04:47:22.811Z,99.99
2018-12-09T04:48:22.876Z,99.65
2018-12-09T04:49:22.850Z,99.17
2018-12-09T04:50:43.901Z,99.27
2018-12-09T04:51:22.915Z,99.55
2018-12-09T04:52:22.920Z,98.79
2018-12-09T04:53:22.959Z,98.79
2018-12-09T04:54:22.959Z,99.46
2018-12-09T04:55:22.989Z,98.60
2018-12-09T04:56:44.035Z,98.79
2018-12-09T04:57:23.065Z,98.79
2018-12-09T04:58:23.056Z,98.69
2018-12-09T04:59:23.075Z,98.88
2018-12-09T05:00:23.104Z,98.41
2018-12-09T05:01:23.114Z,98.69
2018-12-09T05:02:44.151Z,98.50
2018-12-09T05:03:23.157Z,98.50
2018-12-09T05:04:23.169Z,98.32
2018-12-09T05:05:23.214Z,98.69
2018-12-09T05:06:23.214Z,98.22
2018-12-09T05:07:23.252Z,97.84
2018-12-09T05:08:44.294Z,97.55
2018-12-09T05:09:23.279Z,97.65
2018-12-09T05:10:23.324Z,97.27
2018-12-09T05:11:23.343Z,97.08
2018-12-09T05:12:23.375Z,96.98
2018-12-09T05:13:23.389Z,96.98
2018-12-09T05:14:44.413Z,96.41
2018-12-09T05:15:23.422Z,96.98
2018-12-09T05:16:23.481Z,97.08
2018-12-09T05:17:23.463Z,96.70
2018-12-09T05:18:23.484Z,96.12
2018-12-09T05:19:23.511Z,96.60
2018-12-09T05:20:44.553Z,95.36
2018-12-09T05:21:23.565Z,95.56
2018-12-09T05:22:23.570Z,95.65
2018-12-09T05:23:23.590Z,94.79
2018-12-09T05:24:23.618Z,94.79
2018-12-09T05:25:23.634Z,94.89
2018-12-09T05:26:44.669Z,94.79
2018-12-09T05:27:23.679Z,94.70
2018-12-09T05:28:23.716Z,94.51
2018-12-09T05:29:23.754Z,94.98
2018-12-09T05:30:23.738Z,94.22
2018-12-09T05:31:23.758Z,94.03
2018-12-09T05:32:44.806Z,94.42
2018-12-09T05:33:23.793Z,94.13
2018-12-09T05:34:23.827Z,94.32
2018-12-09T05:35:23.845Z,93.65
2018-12-09T05:36:23.877Z,93.84
2018-12-09T05:37:23.888Z,94.32
2018-12-09T05:38:44.928Z,94.13
2018-12-09T05:39:23.949Z,94.32
2018-12-09T05:40:23.944Z,93.94
2018-12-09T05:41:23.994Z,94.22
2018-12-09T05:42:24.001Z,94.13
2018-12-09T05:43:24.034Z,94.03
2018-12-09T05:44:45.051Z,94.60
2018-12-09T05:45:24.093Z,94.51
2018-12-09T05:46:24.085Z,95.08
2018-12-09T05:47:24.104Z,94.70
2018-12-09T05:48:24.123Z,95.36
2018-12-09T05:49:24.149Z,95.36
2018-12-09T05:50:45.193Z,95.75
2018-12-09T05:51:24.181Z,95.46
2018-12-09T05:52:24.201Z,95.56
2018-12-09T05:53:24.237Z,95.27
2018-12-09T05:54:24.249Z,95.75
2018-12-09T05:55:24.283Z,95.65
2018-12-09T05:56:45.340Z,95.94
2018-12-09T05:57:24.303Z,95.46
2018-12-09T05:58:24.349Z,95.17
2018-12-09T05:59:24.352Z,94.98
2018-12-09T06:00:24.391Z,95.08
2018-12-09T06:01:24.406Z,95.17
2018-12-09T06:02:45.428Z,95.56
2018-12-09T06:03:24.437Z,95.08
2018-12-09T06:04:24.458Z,95.65
2018-12-09T06:05:24.500Z,95.56
2018-12-09T06:06:24.506Z,95.65
2018-12-09T06:07:24.543Z,95.65
2018-12-09T06:08:45.590Z,95.75
2018-12-09T06:09:24.576Z,95.36
2018-12-09T06:10:24.602Z,95.27
2018-12-09T06:11:24.607Z,94.51
2018-12-09T06:12:24.647Z,94.32
2018-12-09T06:13:24.659Z,94.51
2018-12-09T06:14:45.695Z,94.79
2018-12-09T06:15:24.708Z,93.94
2018-12-09T06:16:24.717Z,94.42
2018-12-09T06:17:24.752Z,93.65
2018-12-09T06:18:24.796Z,93.65
2018-12-09T06:19:24.802Z,93.65
2018-12-09T06:20:45.840Z,93.18
2018-12-09T06:21:24.823Z,93.74
2018-12-09T06:22:24.851Z,93.84
2018-12-09T06:23:24.870Z,93.46
2018-12-09T06:24:24.906Z,92.99
2018-12-09T06:25:24.913Z,93.08
2018-12-09T06:26:45.946Z,93.08
2018-12-09T06:27:24.960Z,93.74
2018-12-09T06:28:24.968Z,93.94
2018-12-09T06:29:25.009Z,94.42
2018-12-09T06:30:25.017Z,94.79
2018-12-09T06:31:25.054Z,94.79
2018-12-09T06:32:46.084Z,95.17
2018-12-09T06:33:25.074Z,95.75
2018-12-09T06:34:25.112Z,95.22
2018-12-09T06:35:25.118Z,95.51
2018-12-09T06:36:25.187Z,96.12
2018-12-09T06:37:25.168Z,97.13
2018-12-09T06:38:46.203Z,96.84
2018-12-09T06:39:25.212Z,97.22
2018-12-09T06:40:25.232Z,97.31
2018-12-09T06:41:25.260Z,97.50
2018-12-09T06:42:25.270Z,97.60
2018-12-09T06:43:25.313Z,98.55
2018-12-09T06:44:46.342Z,98.65
2018-12-09T06:45:25.349Z,98.74
2018-12-09T06:46:25.362Z,99.02
2018-12-09T06:47:25.402Z,99.22
2018-12-09T06:48:25.414Z,99.12
2018-12-09T06:49:25.427Z,99.12
2018-12-09T06:50:46.455Z,99.41
2018-12-09T06:51:25.471Z,99.50
2018-12-09T06:52:25.480Z,99.12
2018-12-09T06:53:25.560Z,99.99
2018-12-09T06:54:25.596Z,99.88
2018-12-09T06:55:25.634Z,99.99
2018-12-09T06:56:46.588Z,99.99
2018-12-09T06:57:25.604Z,99.99
2018-12-09T06:58:25.617Z,99.99
2018-12-09T06:59:25.703Z,99.99
2018-12-09T07:00:25.679Z,99.99
2018-12-09T07:01:25.680Z,99.99
2018-12-09T07:02:46.714Z,99.99
2018-12-09T07:03:25.758Z,99.99
2018-12-09T07:04:25.753Z,99.99
2018-12-09T07:05:25.811Z,99.99
2018-12-09T07:06:25.823Z,99.99
2018-12-09T07:07:27.565Z,99.99
2018-12-09T07:08:46.853Z,99.99
2018-12-09T07:09:25.889Z,99.99
2018-12-09T07:10:25.905Z,99.99
2018-12-09T07:11:25.893Z,99.99
2018-12-09T07:12:26.028Z,99.99
2018-12-09T07:13:25.949Z,99.99
2018-12-09T07:14:46.974Z,99.99
2018-12-09T07:15:25.979Z,99.99
2018-12-09T07:16:25.993Z,99.99
2018-12-09T07:17:26.032Z,99.99
2018-12-09T07:18:26.071Z,99.99
2018-12-09T07:19:26.073Z,99.99
2018-12-09T07:20:47.117Z,99.99
2018-12-09T07:21:26.106Z,99.99
2018-12-09T07:22:26.129Z,99.99
2018-12-09T07:23:26.173Z,99.99
2018-12-09T07:24:26.185Z,99.99
2018-12-09T07:25:26.192Z,99.99
2018-12-09T07:26:47.239Z,99.99
2018-12-09T07:27:26.244Z,99.99
2018-12-09T07:28:26.262Z,99.99
2018-12-09T07:29:26.302Z,99.99
2018-12-09T07:30:26.296Z,99.99
2018-12-09T07:31:26.338Z,99.99
2018-12-09T07:32:47.362Z,99.99
2018-12-09T07:33:26.377Z,99.99
2018-12-09T07:34:26.396Z,99.99
2018-12-09T07:35:26.415Z,99.99
2018-12-09T07:36:26.442Z,99.99
2018-12-09T07:37:26.455Z,99.99
2018-12-09T07:38:47.482Z,99.99
2018-12-09T07:39:26.514Z,99.99
2018-12-09T07:40:26.529Z,99.99
2018-12-09T07:41:26.537Z,99.99
2018-12-09T07:42:26.562Z,99.99
2018-12-09T07:43:26.591Z,99.99
2018-12-09T07:44:47.626Z,99.99
2018-12-09T07:45:26.637Z,99.99
2018-12-09T07:46:26.669Z,99.99
2018-12-09T07:47:26.679Z,99.99
2018-12-09T07:48:26.685Z,99.99
2018-12-09T07:49:26.719Z,99.99
2018-12-09T07:50:47.800Z,99.99
2018-12-09T07:51:26.749Z,99.99
2018-12-09T07:52:26.796Z,99.99
2018-12-09T07:53:26.782Z,99.99
2018-12-09T07:54:26.809Z,99.99
2018-12-09T07:55:26.856Z,99.88
2018-12-09T07:56:47.878Z,99.98
2018-12-09T07:57:26.876Z,99.99
2018-12-09T07:58:26.918Z,99.99
2018-12-09T07:59:26.935Z,99.99
2018-12-09T08:00:26.930Z,99.99
2018-12-09T08:01:26.975Z,99.99
2018-12-09T08:02:48.009Z,99.99
2018-12-09T08:03:27.024Z,99.99
2018-12-09T08:04:27.030Z,99.99
2018-12-09T08:05:27.079Z,99.99
2018-12-09T08:06:27.065Z,99.99
2018-12-09T08:07:27.095Z,99.99
2018-12-09T08:08:48.155Z,99.99
2018-12-09T08:09:27.135Z,99.99
2018-12-09T08:10:27.171Z,99.99
2018-12-09T08:11:27.185Z,99.99
2018-12-09T08:12:27.193Z,99.99
2018-12-09T08:13:27.225Z,99.99
2018-12-09T08:14:48.282Z,99.99
2018-12-09T08:15:27.272Z,99.99
2018-12-09T08:16:27.289Z,99.99
2018-12-09T08:17:27.323Z,99.99
2018-12-09T08:18:27.409Z,99.99
2018-12-09T08:19:27.358Z,99.99
2018-12-09T08:20:48.413Z,99.99
2018-12-09T08:21:27.388Z,99.99
2018-12-09T08:22:27.404Z,99.99
2018-12-09T08:23:27.445Z,99.99
2018-12-09T08:24:27.454Z,99.99
2018-12-09T08:25:27.486Z,99.99
2018-12-09T08:26:48.511Z,99.99
2018-12-09T08:27:27.529Z,99.99
2018-12-09T08:28:27.616Z,99.99
2018-12-09T08:29:27.580Z,99.99
2018-12-09T08:30:27.629Z,99.99
2018-12-09T08:31:27.656Z,99.99
2018-12-09T08:32:48.662Z,99.99
2018-12-09T08:33:27.650Z,99.99
2018-12-09T08:34:27.676Z,99.84
2018-12-09T08:35:27.732Z,99.99
2018-12-09T08:36:27.735Z,99.27
2018-12-09T08:37:27.742Z,98.88
2018-12-09T08:38:48.777Z,98.69
2018-12-09T08:39:27.788Z,98.98
2018-12-09T08:40:27.804Z,99.08
2018-12-09T08:41:27.834Z,99.46
2018-12-09T08:42:27.857Z,98.60
2018-12-09T08:43:27.855Z,98.69
2018-12-09T08:44:48.938Z,98.55
2018-12-09T08:45:27.905Z,98.93
2018-12-09T08:46:27.922Z,98.65
2018-12-09T08:47:27.949Z,99.22
2018-12-09T08:48:27.982Z,99.12
2018-12-09T08:49:27.995Z,98.65
2018-12-09T08:50:49.040Z,98.27
2018-12-09T08:51:28.045Z,98.27
2018-12-09T08:52:28.063Z,98.65
2018-12-09T08:53:28.108Z,98.93
2018-12-09T08:54:28.096Z,98.27
2018-12-09T08:55:28.122Z,98.65
2018-12-09T08:56:49.171Z,98.55
2018-12-09T08:57:28.154Z,98.55
2018-12-09T08:58:28.226Z,98.65
2018-12-09T08:59:28.232Z,98.36
2018-12-09T09:00:28.277Z,98.27
2018-12-09T09:01:28.257Z,98.08
2018-12-09T09:02:49.286Z,98.65
2018-12-09T09:03:28.301Z,98.74
2018-12-09T09:04:28.312Z,98.74
2018-12-09T09:05:28.364Z,98.46
2018-12-09T09:06:28.357Z,98.55
2018-12-09T09:07:28.383Z,98.46
2018-12-09T09:08:49.436Z,98.83
2018-12-09T09:09:28.422Z,99.02
2018-12-09T09:10:28.550Z,98.83
2018-12-09T09:11:28.496Z,98.36
2018-12-09T09:12:28.531Z,98.65
2018-12-09T09:13:28.568Z,98.27
2018-12-09T09:14:49.613Z,98.83
2018-12-09T09:15:28.561Z,99.12
2018-12-09T09:16:28.562Z,99.02
2018-12-09T09:17:28.599Z,99.12
2018-12-09T09:18:28.606Z,99.22
2018-12-09T09:19:28.658Z,98.93
2018-12-09T09:20:49.696Z,98.93
2018-12-09T09:21:28.673Z,98.55
2018-12-09T09:22:28.706Z,98.46
2018-12-09T09:23:28.717Z,97.79
2018-12-09T09:24:28.741Z,98.08
2018-12-09T09:25:28.762Z,97.79
2018-12-09T09:26:49.794Z,98.65
2018-12-09T09:27:28.813Z,98.74
2018-12-09T09:28:28.822Z,98.74
2018-12-09T09:29:28.848Z,98.74
2018-12-09T09:30:28.868Z,97.88
2018-12-09T09:31:28.907Z,97.69
2018-12-09T09:32:49.943Z,97.98
2018-12-09T09:33:28.928Z,97.79
2018-12-09T09:34:28.964Z,97.41
2018-12-09T09:35:28.974Z,97.03
2018-12-09T09:36:29.004Z,96.84
2018-12-09T09:37:29.040Z,97.03
2018-12-09T09:38:50.105Z,96.74
2018-12-09T09:39:29.062Z,96.84
2018-12-09T09:40:29.072Z,97.31
2018-12-09T09:41:29.142Z,96.46
2018-12-09T09:42:29.122Z,96.46
2018-12-09T09:43:29.174Z,96.46
2018-12-09T09:44:50.194Z,95.41
2018-12-09T09:45:29.195Z,96.55
2018-12-09T09:46:29.220Z,95.32
2018-12-09T09:47:29.217Z,95.51
2018-12-09T09:48:29.263Z,95.60
2018-12-09T09:49:29.315Z,95.51
2018-12-09T09:50:50.306Z,95.12
2018-12-09T09:51:29.318Z,95.51
2018-12-09T09:52:29.352Z,94.93
2018-12-09T09:53:29.406Z,94.65
2018-12-09T09:54:29.371Z,94.93
2018-12-09T09:55:29.433Z,94.27
2018-12-09T09:56:50.440Z,94.08
2018-12-09T09:57:29.438Z,94.74
2018-12-09T09:58:29.490Z,94.93
2018-12-09T09:59:29.481Z,95.22
2018-12-09T10:00:29.523Z,95.12
2018-12-09T10:01:29.525Z,94.56
2018-12-09T10:02:50.573Z,93.98
2018-12-09T10:03:29.575Z,93.89
2018-12-09T10:04:29.605Z,94.74
2018-12-09T10:05:29.625Z,94.84
2018-12-09T10:06:29.630Z,94.27
2018-12-09T10:07:29.662Z,94.74
2018-12-09T10:08:50.706Z,94.84
2018-12-09T10:09:29.724Z,94.08
2018-12-09T10:10:29.726Z,93.41
2018-12-09T10:11:29.767Z,93.60
2018-12-09T10:12:29.766Z,93.89
2018-12-09T10:13:29.780Z,93.70
2018-12-09T10:14:50.820Z,93.27
2018-12-09T10:15:29.861Z,93.32
2018-12-09T10:16:29.862Z,93.18
2018-12-09T10:17:29.899Z,92.32
2018-12-09T10:18:29.911Z,93.08
2018-12-09T10:19:29.918Z,93.04
2018-12-09T10:20:50.946Z,93.23
2018-12-09T10:21:29.959Z,92.79
2018-12-09T10:22:30.006Z,93.04
2018-12-09T10:23:29.995Z,93.27
2018-12-09T10:24:30.021Z,93.27
2018-12-09T10:25:30.079Z,93.41
2018-12-09T10:26:51.095Z,93.32
2018-12-09T10:27:30.088Z,92.56
2018-12-09T10:28:30.120Z,92.79
2018-12-09T10:29:30.130Z,92.99
2018-12-09T10:30:30.168Z,93.37
2018-12-09T10:31:30.174Z,93.27
2018-12-09T10:32:52.675Z,93.18
2018-12-09T10:33:30.939Z,92.89
2018-12-09T10:34:38.585Z,93.18
2018-12-09T10:35:30.254Z,93.18
2018-12-09T10:36:30.278Z,92.99
2018-12-09T10:37:30.318Z,92.89
2018-12-09T10:38:51.347Z,92.60
2018-12-09T10:39:30.335Z,92.70
2018-12-09T10:40:30.371Z,92.60
2018-12-09T10:41:30.399Z,92.60
2018-12-09T10:42:30.412Z,92.79
2018-12-09T10:43:30.424Z,92.60
2018-12-09T10:44:51.475Z,92.70
2018-12-09T10:45:30.503Z,92.89
2018-12-09T10:46:30.503Z,93.08
2018-12-09T10:47:30.518Z,92.70
2018-12-09T10:48:30.542Z,92.41
2018-12-09T10:49:31.255Z,92.60
2018-12-09T10:50:51.613Z,92.79
2018-12-09T10:51:30.625Z,92.51
2018-12-09T10:52:30.623Z,92.51
2018-12-09T10:53:31.677Z,92.99
2018-12-09T10:54:30.921Z,93.18
2018-12-09T10:55:31.490Z,92.79
2018-12-09T10:56:51.968Z,92.60
2018-12-09T10:57:31.483Z,92.99
2018-12-09T10:58:31.339Z,92.79
2018-12-09T10:59:31.155Z,92.13
2018-12-09T11:00:30.882Z,92.51
2018-12-09T11:01:30.935Z,92.70
2018-12-09T11:02:51.890Z,92.22
2018-12-09T11:03:30.957Z,92.51
2018-12-09T11:04:30.899Z,92.89
2018-12-09T11:05:31.038Z,92.22
2018-12-09T11:06:31.031Z,93.18
2018-12-09T11:07:30.983Z,92.13
2018-12-09T11:08:52.055Z,91.65
2018-12-09T11:09:31.095Z,91.84
2018-12-09T11:10:31.051Z,92.03
2018-12-09T11:11:31.067Z,91.65
2018-12-09T11:12:31.133Z,91.84
2018-12-09T11:13:31.091Z,91.56
2018-12-09T11:14:52.206Z,91.75
2018-12-09T11:15:31.159Z,91.65
2018-12-09T11:16:31.145Z,91.46
2018-12-09T11:17:31.213Z,91.84
2018-12-09T11:18:31.199Z,91.37
2018-12-09T11:19:31.250Z,91.56
2018-12-09T11:20:52.265Z,91.17
2018-12-09T11:21:31.358Z,91.27
2018-12-09T11:22:31.331Z,91.27
2018-12-09T11:23:31.314Z,91.08
2018-12-09T11:24:31.321Z,90.80
2018-12-09T11:25:31.361Z,90.89
2018-12-09T11:26:52.418Z,91.46
2018-12-09T11:27:31.407Z,90.80
2018-12-09T11:28:31.424Z,90.99
2018-12-09T11:29:31.432Z,90.13
2018-12-09T11:30:31.585Z,90.51
2018-12-09T11:31:31.552Z,90.22
2018-12-09T11:32:52.578Z,89.65
2018-12-09T11:33:31.530Z,88.89
2018-12-09T11:34:31.566Z,88.51
2018-12-09T11:35:31.554Z,88.89
2018-12-09T11:36:31.609Z,88.42
2018-12-09T11:37:31.609Z,88.51
2018-12-09T11:38:52.656Z,88.79
2018-12-09T11:39:31.668Z,88.23
2018-12-09T11:40:31.680Z,88.23
2018-12-09T11:41:31.704Z,88.23
2018-12-09T11:42:31.739Z,88.51
2018-12-09T11:43:31.731Z,88.32
2018-12-09T11:44:52.779Z,88.32
2018-12-09T11:45:31.773Z,88.32
2018-12-09T11:46:31.801Z,88.13
2018-12-09T11:47:31.823Z,88.32
2018-12-09T11:48:31.868Z,88.32
2018-12-09T11:49:31.876Z,88.42
2018-12-09T11:50:52.918Z,87.56
2018-12-09T11:51:31.931Z,88.23
2018-12-09T11:52:31.941Z,88.32
2018-12-09T11:53:31.943Z,88.99
2018-12-09T11:54:31.987Z,88.23
2018-12-09T11:55:32.009Z,88.42
2018-12-09T11:56:53.059Z,88.70
2018-12-09T11:57:32.040Z,88.42
2018-12-09T11:58:32.074Z,88.13
2018-12-09T11:59:32.079Z,88.32
2018-12-09T12:00:32.122Z,88.60
2018-12-09T12:01:32.156Z,88.89
2018-12-09T12:02:53.169Z,88.51
2018-12-09T12:03:32.163Z,88.70
2018-12-09T12:04:32.199Z,89.27
2018-12-09T12:05:32.214Z,89.08
2018-12-09T12:06:32.316Z,89.56
2018-12-09T12:07:32.314Z,89.18
2018-12-09T12:08:53.299Z,90.03
2018-12-09T12:09:32.291Z,89.56
2018-12-09T12:10:32.324Z,89.84
2018-12-09T12:11:32.373Z,89.47
2018-12-09T12:12:32.432Z,89.27
2018-12-09T12:13:32.397Z,89.27
2018-12-09T12:14:53.496Z,89.47
2018-12-09T12:15:32.437Z,89.65
2018-12-09T12:16:32.616Z,89.65
2018-12-09T12:17:32.477Z,89.47
2018-12-09T12:18:32.487Z,89.75
2018-12-09T12:19:32.516Z,89.75
2018-12-09T12:20:53.573Z,89.47
2018-12-09T12:21:32.583Z,90.13
2018-12-09T12:22:32.576Z,89.08
2018-12-09T12:23:32.593Z,89.47
2018-12-09T12:24:32.642Z,89.75
2018-12-09T12:25:32.648Z,89.65
2018-12-09T12:26:53.680Z,89.56
2018-12-09T12:27:32.693Z,89.27
2018-12-09T12:28:32.701Z,89.27
2018-12-09T12:29:32.742Z,89.37
2018-12-09T12:30:32.772Z,89.08
2018-12-09T12:31:32.778Z,89.75
2018-12-09T12:32:53.812Z,89.27
2018-12-09T12:33:32.825Z,89.18
2018-12-09T12:34:32.849Z,89.47
2018-12-09T12:35:32.858Z,89.27
2018-12-09T12:36:32.885Z,89.47
2018-12-09T12:37:32.925Z,89.94
2018-12-09T12:38:53.936Z,90.03
2018-12-09T12:39:32.954Z,89.94
2018-12-09T12:40:32.985Z,89.75
2018-12-09T12:41:33.014Z,89.65
2018-12-09T12:42:33.038Z,89.47
2018-12-09T12:43:33.037Z,89.84
2018-12-09T12:44:54.087Z,89.84
2018-12-09T12:45:33.093Z,89.84
2018-12-09T12:46:33.107Z,90.03
2018-12-09T12:47:33.162Z,89.75
2018-12-09T12:48:33.138Z,89.84
2018-12-09T12:49:33.157Z,89.94
2018-12-09T12:50:54.219Z,90.42
2018-12-09T12:51:33.229Z,90.61
2018-12-09T12:52:33.253Z,90.42